LKKU  Kunovice  Airport

Uherské Hradiště, Czech Republic

Add Bookmark
ICAO LKKU
IATA UHE
Type Airport
Status Operational
Latitude
49° 1' 45" N
49.029400
Longitude
17° 26' 22" E
17.439699
Local (DST + 2) UTC (GMT + 1)
May 29, 2015 08:05 May 29, 2015 06:05
Sunrise-Sunset Local UTC
Begin Civil Twilight 04:09 02:09
Sunrise 04:50 02:50
Sunset 08:44 18:44
End Civil Twilight 09:25 19:25
VFR
VFR
MVFR
MVFR
IFR
VFR
LIFR
VFR
Unknown
Unavailable

Current Weather

METAR Observed VFR
LKKU 290520Z 35003KT 310V040 CAVOK 10/07 Q1016 Fri, May 29, 2015 @ 05:20 UTC
(45 Minutes ago)
Visual Flight Rules
Wind Visibility Conditions
350° at 3 knots (6 kph) 10 km or more
  • No significant weather
Temperatures Readings Precipitation
Current Temp
10°C
50°F
Dewpoint
7°C
45°F
Humidity 82%
Altimeter 30" Hg
Sea Level Pressure 1,016 mb
Field Elevation
177 m
581 ft
None Recorded

Additional weather within a 92.6km radius of LKKU

Map ICAO Location
LZPP 53.2km S/SE (148°)
LKTB 55.9km W/NW (284°)
LKMT 88.7km N/NE (033°)
VFR
VFR
MVFR
MVFR
IFR
VFR
LIFR
VFR
Unknown
Unavailable
-
-

CheckWX.com is intended as a tool to help pilots better visualize weather data. It is not intended as a substitute for an official weather briefing obtained from a Flight Service Station. CheckWX.com does not meet the FAA requirements for an official pre-flight weather briefing. Therefore, it's important that pilots still call and obtain an official FSS pre-flight weather briefing.

© 2007-2015 CheckWX.com
06:05:35 UTC